Time;durP1;ratioP1;P1;durP2;ratioP2;P2;SDS_P1;SDS_P2;PMS_P1;PMS_P2;Temp;Humidity;BMP_temperature;BMP_pressure;BME280_temperature;BME280_humidity;BME280_pressure;Samples;Min_cycle;Max_cycle;Signal;HPM_P1;HPM_P2
2020/12/02 00:01:19;;;;;;;22.70;13.00;;;;;;;5.03;93.31;102210.50;5119367;27;20053;-77
2020/12/02 00:03:57;;;;;;;23.50;12.33;;;;;;;5.03;93.64;102220.69;5131025;27;20113;-76
2020/12/02 00:06:24;;;;;;;22.23;12.63;;;;;;;5.03;93.39;102220.69;5124080;27;20114;-75
2020/12/02 00:08:57;;;;;;;22.10;11.43;;;;;;;5.03;93.19;102216.47;5111397;28;20020;-76
2020/12/02 00:11:23;;;;;;;21.43;10.50;;;;;;;5.03;93.13;102213.06;5121818;27;20083;-77
2020/12/02 00:13:49;;;;;;;;;;;;;;;5.00;93.10;102206.97;5131721;27;20455;-76
2020/12/02 00:16:21;;;;;;;22.60;10.70;;;;;;;4.96;92.71;102207.56;5116909;27;19943;-77
2020/12/02 00:18:47;;;;;;;21.07;10.87;;;;;;;4.96;93.01;102210.09;5115860;27;20031;-76
2020/12/02 00:21:12;;;;;;;20.30;11.00;;;;;;;4.89;92.65;102219.75;5113448;27;20365;-76
2020/12/02 00:23:37;;;;;;;18.02;10.23;;;;;;;4.88;92.38;102218.88;5120803;27;20012;-77
2020/12/02 00:26:07;;;;;;;16.53;10.33;;;;;;;4.79;92.13;102218.22;5116665;27;20019;-77
2020/12/02 00:28:32;;;;;;;19.30;9.97;;;;;;;4.74;92.28;102213.59;5121409;27;20027;-76
2020/12/02 00:30:57;;;;;;;19.58;10.15;;;;;;;4.73;92.17;102212.72;5111247;28;20031;-77
2020/12/02 00:33:25;;;;;;;17.40;10.93;;;;;;;4.70;92.24;102207.41;5111273;28;20020;-76
2020/12/02 00:35:52;;;;;;;18.43;10.67;;;;;;;4.75;92.04;102208.63;5110930;28;20364;-77
2020/12/02 00:38:19;;;;;;;17.13;10.53;;;;;;;4.78;92.68;102219.00;5117136;27;20105;-76
2020/12/02 00:40:45;;;;;;;16.83;10.70;;;;;;;4.79;92.40;102218.22;5126981;27;20023;-76
2020/12/02 00:43:17;;;;;;;21.92;12.65;;;;;;;4.80;92.67;102217.44;5121157;27;20154;-77
2020/12/02 00:45:43;;;;;;;19.33;11.37;;;;;;;4.84;92.77;102221.97;5113156;27;20039;-77
2020/12/02 00:48:14;;;;;;;21.15;11.43;;;;;;;4.88;93.01;102218.88;5110715;28;21272;-77
2020/12/02 00:50:39;;;;;;;19.60;11.87;;;;;;;4.90;93.18;102217.31;5110903;27;20019;-77
2020/12/02 00:53:12;;;;;;;19.95;11.45;;;;;;;4.96;93.36;102220.28;5120900;27;20030;-77
2020/12/02 00:55:38;;;;;;;21.87;11.27;;;;;;;5.02;93.38;102216.38;5124771;27;20023;-76
2020/12/02 00:58:08;;;;;;;24.90;12.57;;;;;;;5.02;93.42;102218.94;5129711;27;20026;-77
2020/12/02 01:00:38;;;;;;;19.63;11.17;;;;;;;5.05;93.25;102216.59;5129825;27;20021;-77
2020/12/02 01:03:17;;;;;;;21.53;13.07;;;;;;;5.08;93.28;102207.47;5107848;27;20416;-77
2020/12/02 01:05:48;;;;;;;23.40;12.57;;;;;;;5.05;93.15;102216.59;5123860;27;20110;-77
2020/12/02 01:08:28;;;;;;;22.67;12.00;;;;;;;5.08;93.09;102209.16;5128642;27;20023;-77
2020/12/02 01:11:02;;;;;;;23.10;12.90;;;;;;;5.11;92.99;102211.91;5122098;27;20023;-76
2020/12/02 01:13:31;;;;;;;20.77;12.03;;;;;;;5.13;93.00;102211.22;5129918;27;20016;-76
2020/12/02 01:15:57;;;;;;;18.43;12.57;;;;;;;5.13;92.98;102210.34;5129337;27;20030;-77
2020/12/02 01:18:26;;;;;;;23.10;13.00;;;;;;;5.09;92.63;102209.25;5129379;27;20023;-76
2020/12/02 01:21:14;;;;;;;24.60;13.83;;;;;;;5.18;93.03;102209.84;5120134;27;20027;-76
2020/12/02 01:23:42;;;;;;;23.27;12.80;;;;;;;5.14;92.84;102215.53;5108418;27;20061;-77
2020/12/02 01:26:08;;;;;;;20.90;12.13;;;;;;;5.20;93.04;102209.97;5127562;27;20026;-76
2020/12/02 01:28:35;;;;;;;19.45;12.27;;;;;;;5.19;92.91;102205.66;5117334;27;20024;-76
2020/12/02 01:31:01;;;;;;;23.40;12.97;;;;;;;5.16;93.08;102208.00;5123008;27;20488;-76
2020/12/02 01:33:27;;;;;;;22.53;12.40;;;;;;;5.13;92.83;102207.78;5121964;27;20142;-77
2020/12/02 01:35:53;;;;;;;20.23;12.18;;;;;;;5.14;92.99;102212.09;5122316;27;20131;-77
2020/12/02 01:38:37;;;;;;;17.73;11.30;;;;;;;5.20;93.27;102207.41;5124118;27;20058;-76
2020/12/02 01:41:02;;;;;;;21.53;11.07;;;;;;;5.24;92.96;102205.19;5125066;27;20019;-77
2020/12/02 01:43:28;;;;;;;18.85;11.30;;;;;;;5.23;92.64;102208.53;5119219;27;20053;-77
2020/12/02 01:45:58;;;;;;;19.47;11.60;;;;;;;5.25;92.65;102206.09;5123909;27;20027;-77
2020/12/02 01:48:28;;;;;;;18.60;11.50;;;;;;;5.31;92.85;102212.47;5126647;27;20556;-76
2020/12/02 01:50:57;;;;;;;19.50;12.00;;;;;;;5.26;92.68;102212.94;5122834;27;20514;-77
2020/12/02 01:53:38;;;;;;;18.90;11.70;;;;;;;5.32;92.50;102208.25;5115326;27;20031;-77
2020/12/02 01:56:27;;;;;;;22.17;11.90;;;;;;;5.27;92.50;102207.94;5121213;27;20408;-76
2020/12/02 01:59:30;;;;;;;19.47;12.70;;;;;;;5.22;92.66;102208.44;5127897;27;20027;-77
2020/12/02 02:02:01;;;;;;;20.43;12.33;;;;;;;5.17;92.84;102208.09;5128929;27;20034;-76
2020/12/02 02:04:37;;;;;;;23.53;13.10;;;;;;;5.20;92.88;102208.31;5119114;27;20080;-76
2020/12/02 02:07:08;;;;;;;20.27;12.07;;;;;;;5.22;92.89;102208.44;5127744;27;20023;-76
2020/12/02 02:09:34;;;;;;;23.17;12.47;;;;;;;5.28;92.74;102209.72;5128420;27;20033;-76
2020/12/02 02:12:31;;;;;;;19.80;11.80;;;;;;;5.30;92.25;102209.81;5119823;27;20031;-77
2020/12/02 02:15:34;;;;;;;23.70;12.20;;;;;;;5.29;92.58;102211.47;5113663;27;20027;-76
2020/12/02 02:18:21;;;;;;;19.57;11.57;;;;;;;5.29;92.31;102219.13;5113300;27;20031;-77
2020/12/02 02:21:14;;;;;;;22.50;13.03;;;;;;;5.21;92.81;102209.22;5113716;28;20058;-77
2020/12/02 02:23:40;;;;;;;21.60;12.03;;;;;;;5.21;92.69;102207.53;5121887;28;20033;-77
2020/12/02 02:26:14;;;;;;;19.55;12.90;;;;;;;5.18;92.76;102207.31;5124103;27;20027;-75
2020/12/02 02:28:54;;;;;;;25.33;13.23;;;;;;;5.17;93.10;102208.09;5112365;27;20073;-77
2020/12/02 02:31:23;;;;;;;19.33;12.10;;;;;;;5.19;93.36;102210.75;5117318;28;20019;-77
2020/12/02 02:33:50;;;;;;;21.07;12.73;;;;;;;5.21;93.06;102201.56;5121200;28;20034;-78
2020/12/02 02:36:19;;;;;;;22.90;11.90;;;;;;;5.24;93.26;102204.31;5128421;27;20015;-77
2020/12/02 02:38:44;;;;;;;18.73;11.43;;;;;;;5.24;92.97;102191.59;5116193;27;20110;-76
2020/12/02 02:41:10;;;;;;;20.30;11.82;;;;;;;5.23;93.19;102202.56;5115300;27;20131;-76
2020/12/02 02:43:37;;;;;;;20.50;12.50;;;;;;;5.24;93.41;102194.13;5124358;27;20020;-77
2020/12/02 02:46:03;;;;;;;19.63;12.37;;;;;;;5.26;93.38;102184.91;5112375;28;20039;-77
2020/12/02 02:48:28;;;;;;;21.92;13.23;;;;;;;5.25;93.10;102188.25;5126376;28;20063;-76
2020/12/02 02:50:54;;;;;;;17.88;11.93;;;;;;;5.24;93.26;102183.94;5128990;27;20058;-76
2020/12/02 02:53:21;;;;;;;24.08;12.77;;;;;;;5.22;93.02;102188.94;5128179;28;20034;-76
2020/12/02 02:55:48;;;;;;;21.80;12.53;;;;;;;5.26;93.14;102184.91;5128094;27;20442;-77
2020/12/02 02:58:14;;;;;;;21.60;13.60;;;;;;;5.24;93.17;102183.94;5113587;28;20031;-77
2020/12/02 03:00:40;;;;;;;24.85;11.93;;;;;;;5.22;93.44;102176.19;5120387;28;20027;-76
2020/12/02 03:03:09;;;;;;;21.67;11.73;;;;;;;5.24;93.48;102174.63;5121300;28;20033;-76
2020/12/02 03:05:34;;;;;;;22.13;12.50;;;;;;;5.29;93.46;102177.47;5118737;27;20039;-75
2020/12/02 03:08:04;;;;;;;19.58;12.75;;;;;;;5.28;93.33;102175.72;5113794;28;20107;-76
2020/12/02 03:10:33;;;;;;;23.00;12.70;;;;;;;5.28;93.19;102175.72;5113471;27;20492;-75
2020/12/02 03:13:03;;;;;;;25.43;12.53;;;;;;;5.28;93.57;102170.63;5121928;27;20019;-77
2020/12/02 03:15:30;;;;;;;19.47;12.33;;;;;;;5.28;93.57;102171.50;5117997;27;20705;-76
2020/12/02 03:17:55;;;;;;;24.23;13.10;;;;;;;5.28;93.49;102166.41;5121034;27;20023;-77
2020/12/02 03:20:29;;;;;;;23.40;11.82;;;;;;;5.29;93.34;102169.84;5117801;27;20088;-77
2020/12/02 03:22:54;;;;;;;19.07;11.73;;;;;;;5.27;93.28;102169.72;5113710;28;20027;-76
2020/12/02 03:25:23;;;;;;;21.77;11.87;;;;;;;5.26;93.47;102170.50;5120024;27;20396;-77
2020/12/02 03:27:49;;;;;;;20.17;11.87;;;;;;;5.26;93.29;102175.63;5120847;27;20671;-76
2020/12/02 03:30:17;;;;;;;19.80;12.05;;;;;;;5.27;93.26;102177.38;5118743;27;20080;-77
2020/12/02 03:32:43;;;;;;;19.87;10.93;;;;;;;5.28;93.47;102175.72;5121285;27;20396;-77
2020/12/02 03:35:09;;;;;;;17.37;11.63;;;;;;;5.30;93.51;102169.06;5119450;27;20054;-76
2020/12/02 03:37:34;;;;;;;21.92;11.55;;;;;;;5.31;93.36;102178.47;5121295;27;20489;-75
2020/12/02 03:39:59;;;;;;;16.83;11.00;;;;;;;5.32;93.37;102167.47;5127977;27;20365;-77
2020/12/02 03:42:25;;;;;;;21.97;10.87;;;;;;;5.31;93.29;102170.81;5117906;27;20289;-76
2020/12/02 03:44:50;;;;;;;21.80;11.87;;;;;;;5.34;93.19;102175.22;5117716;27;20265;-76
2020/12/02 03:47:15;;;;;;;18.77;10.50;;;;;;;5.31;93.13;102170.81;5124073;27;20789;-77
2020/12/02 03:49:40;;;;;;;18.98;10.27;;;;;;;5.28;93.52;102171.50;5121077;27;20031;-76
2020/12/02 03:52:06;;;;;;;19.40;10.87;;;;;;;5.28;93.34;102168.94;5120579;27;20084;-77
2020/12/02 03:54:31;;;;;;;19.73;11.23;;;;;;;5.26;93.23;102169.63;5118079;27;20034;-76
2020/12/02 03:56:56;;;;;;;17.70;10.80;;;;;;;5.26;93.44;102167.09;5122211;27;20015;-77
2020/12/02 03:59:22;;;;;;;15.60;10.07;;;;;;;5.28;93.37;102157.88;5122924;27;20408;-77
2020/12/02 04:01:47;;;;;;;17.80;10.35;;;;;;;5.31;93.38;102151.31;5126949;27;20809;-77
2020/12/02 04:04:12;;;;;;;20.13;11.07;;;;;;;5.30;93.51;102151.22;5122398;27;20019;-77
2020/12/02 04:06:38;;;;;;;16.53;10.23;;;;;;;5.29;93.03;102152.88;5119068;27;20023;-77
2020/12/02 04:09:03;;;;;;;17.90;10.40;;;;;;;5.28;93.04;102152.78;5118373;27;20065;-75
2020/12/02 04:11:28;;;;;;;16.38;10.40;;;;;;;5.28;93.02;102145.13;5123245;27;20020;-77
2020/12/02 04:13:54;;;;;;;17.58;11.68;;;;;;;5.27;92.92;102140.81;5120795;27;20029;-77
2020/12/02 04:16:19;;;;;;;15.73;10.73;;;;;;;5.26;93.14;102146.72;5117496;27;20061;-77
2020/12/02 04:18:45;;;;;;;20.45;10.82;;;;;;;5.29;93.03;102136.72;5121465;27;20516;-76
2020/12/02 04:21:10;;;;;;;22.00;12.40;;;;;;;5.25;93.26;102133.09;5113516;27;20019;-76
2020/12/02 04:23:35;;;;;;;15.95;10.07;;;;;;;5.24;93.34;102133.00;5120883;27;20472;-77
2020/12/02 04:26:01;;;;;;;19.40;10.63;;;;;;;5.26;93.08;102126.31;5120038;27;20110;-77
2020/12/02 04:28:26;;;;;;;15.65;9.52;;;;;;;5.28;93.34;102134.94;5114698;27;20277;-76
2020/12/02 04:30:51;;;;;;;17.37;9.93;;;;;;;5.27;93.13;102123.00;5122258;27;20024;-77
2020/12/02 04:33:16;;;;;;;17.07;10.13;;;;;;;5.28;93.25;102124.75;5122816;27;20697;-77
2020/12/02 04:35:42;;;;;;;15.63;10.60;;;;;;;5.30;93.08;102123.19;5120219;27;20071;-76
2020/12/02 04:38:08;;;;;;;18.55;9.93;;;;;;;5.30;93.10;102123.19;5124153;27;20027;-77
2020/12/02 04:40:37;;;;;;;20.55;11.93;;;;;;;5.31;92.97;102130.06;5121607;27;20073;-75
2020/12/02 04:43:12;;;;;;;25.10;12.93;;;;;;;5.28;93.01;102133.28;5122651;27;20414;-76
2020/12/02 04:45:37;;;;;;;23.60;14.50;;;;;;;5.26;93.24;102133.97;5118449;27;20110;-76
2020/12/02 04:48:10;;;;;;;28.38;14.80;;;;;;;5.24;92.89;102122.81;5119263;27;20457;-76
2020/12/02 04:50:35;;;;;;;23.10;14.23;;;;;;;5.27;93.06;102130.63;5125070;27;20058;-76
2020/12/02 04:53:23;;;;;;;28.17;15.98;;;;;;;5.22;93.28;102117.59;5120116;27;20051;-76
2020/12/02 04:55:55;;;;;;;28.50;15.63;;;;;;;5.21;93.12;102128.56;5121060;27;20416;-77
2020/12/02 04:58:33;;;;;;;26.40;14.70;;;;;;;5.29;93.41;102123.97;5122355;27;20038;-76
2020/12/02 05:01:14;;;;;;;27.10;14.33;;;;;;;5.28;93.15;102119.66;5117326;27;20044;-76
2020/12/02 05:03:49;;;;;;;28.57;14.07;;;;;;;5.31;93.03;102119.84;5121753;27;20121;-76
2020/12/02 05:06:22;;;;;;;27.43;15.27;;;;;;;5.26;93.22;102117.03;5119493;27;20114;-76
2020/12/02 05:08:47;;;;;;;29.60;15.53;;;;;;;5.24;92.92;102122.81;5120928;27;20110;-77
2020/12/02 05:11:12;;;;;;;30.90;15.73;;;;;;;5.24;93.00;102120.25;5114844;27;20215;-76
2020/12/02 05:13:38;;;;;;;31.83;15.93;;;;;;;5.33;92.99;102113.19;5116220;27;20634;-76
2020/12/02 05:16:11;;;;;;;28.57;15.53;;;;;;;5.26;92.98;102116.13;5113560;27;20113;-75
2020/12/02 05:18:36;;;;;;;29.13;14.83;;;;;;;5.22;92.84;102120.16;5120739;27;20508;-76
2020/12/02 05:21:19;;;;;;;32.35;16.63;;;;;;;5.21;93.45;102118.38;5122136;27;20027;-76
2020/12/02 05:24:00;;;;;;;28.43;15.30;;;;;;;5.22;93.14;102114.19;5116119;27;20072;-75
2020/12/02 05:26:25;;;;;;;31.03;15.80;;;;;;;5.21;93.16;102109.88;5123383;27;20541;-76
2020/12/02 05:28:50;;;;;;;30.10;17.50;;;;;;;5.16;93.45;102111.19;5122152;27;20035;-76
2020/12/02 05:31:25;;;;;;;31.88;16.95;;;;;;;5.14;93.52;102106.00;5126784;27;20300;-76
2020/12/02 05:33:50;;;;;;;32.00;16.30;;;;;;;5.15;93.47;102112.88;5123387;27;20381;-76
2020/12/02 05:36:16;;;;;;;30.10;17.17;;;;;;;5.13;93.39;102103.34;5119046;27;20029;-76
2020/12/02 05:38:56;;;;;;;30.93;16.50;;;;;;;5.13;93.73;102108.44;5113057;27;20273;-77
2020/12/02 05:41:24;;;;;;;35.47;17.47;;;;;;;5.10;93.64;102104.03;5119587;27;20031;-76
2020/12/02 05:44:03;;;;;;;32.37;16.30;;;;;;;5.12;93.73;102097.38;5118852;27;20034;-77
2020/12/02 05:46:38;;;;;;;32.60;17.57;;;;;;;5.11;93.49;102092.19;5120018;27;20027;-76
2020/12/02 05:49:07;;;;;;;30.70;16.20;;;;;;;5.11;93.71;102087.09;5112096;28;20601;-76
2020/12/02 05:51:33;;;;;;;32.70;17.07;;;;;;;5.13;93.57;102091.50;5122891;27;20042;-76
2020/12/02 05:54:11;;;;;;;35.67;16.75;;;;;;;5.11;93.68;102087.97;5118449;27;20023;-77
2020/12/02 05:56:36;;;;;;;31.90;16.53;;;;;;;5.12;93.52;102088.84;5121199;27;20027;-76
2020/12/02 05:59:02;;;;;;;29.27;17.38;;;;;;;5.12;93.54;102088.84;5117308;27;20107;-77
2020/12/02 06:01:29;;;;;;;29.60;15.85;;;;;;;5.14;93.38;102082.19;5123492;27;20102;-76
2020/12/02 06:03:56;;;;;;;30.47;16.27;;;;;;;5.15;93.41;102089.06;5115323;27;20051;-77
2020/12/02 06:06:22;;;;;;;28.27;14.90;;;;;;;5.15;93.18;102087.38;5118038;27;20023;-77
2020/12/02 06:08:50;;;;;;;29.73;14.87;;;;;;;5.16;93.07;102089.16;5124432;27;20023;-77
2020/12/02 06:11:15;;;;;;;29.33;17.13;;;;;;;5.12;93.37;102084.66;5118507;28;20020;-77
2020/12/02 06:13:46;;;;;;;29.33;16.43;;;;;;;5.10;93.41;102083.66;5117603;28;20050;-76
2020/12/02 06:16:15;;;;;;;32.40;16.67;;;;;;;5.09;93.27;102076.81;5119638;28;20031;-76
2020/12/02 06:18:40;;;;;;;31.70;16.30;;;;;;;5.11;93.36;102079.47;5120838;28;20031;-76
2020/12/02 06:21:07;;;;;;;32.03;16.77;;;;;;;5.09;93.58;102078.47;5117327;28;20095;-76
2020/12/02 06:23:43;;;;;;;33.43;16.23;;;;;;;5.09;93.37;102074.25;5116910;28;20114;-77
2020/12/02 06:26:09;;;;;;;26.87;12.70;;;;;;;5.15;93.09;102076.31;5118048;27;20058;-76
2020/12/02 06:28:34;;;;;;;34.15;16.25;;;;;;;5.11;93.15;102076.91;5119175;28;20269;-76
2020/12/02 06:31:35;;;;;;;30.23;15.40;;;;;;;5.07;93.43;102077.50;5113582;28;20028;-76
2020/12/02 06:34:20;;;;;;;28.43;15.97;;;;;;;5.08;93.66;102079.25;5064864;28;20143;-76
2020/12/02 06:37:00;;;;;;;36.47;18.13;;;;;;;5.07;93.32;102073.28;5113328;28;20405;-76
2020/12/02 06:39:29;;;;;;;31.60;16.67;;;;;;;5.08;93.37;102063.97;5116802;28;20083;-76
2020/12/02 06:41:54;;;;;;;29.60;15.37;;;;;;;5.10;93.56;102067.50;5124035;27;20507;-75
2020/12/02 06:44:38;;;;;;;30.77;15.63;;;;;;;5.10;93.29;102070.94;5126480;27;20039;-77
2020/12/02 06:47:20;;;;;;;33.13;18.20;;;;;;;5.07;93.34;102067.31;5119741;28;20308;-77
2020/12/02 06:49:49;;;;;;;29.03;15.60;;;;;;;5.09;93.52;102071.72;5128504;27;20480;-77
2020/12/02 06:52:28;;;;;;;26.87;15.17;;;;;;;5.13;93.50;102067.69;5122758;27;20026;-77
2020/12/02 06:55:15;;;;;;;30.87;17.03;;;;;;;5.09;93.26;102070.84;5117487;27;20031;-76
2020/12/02 06:57:41;;;;;;;28.00;15.33;;;;;;;5.09;93.08;102063.19;5112363;28;20023;-77
2020/12/02 07:00:18;;;;;;;27.33;14.98;;;;;;;5.11;93.33;102074.38;5115409;27;20070;-77
2020/12/02 07:02:54;;;;;;;20.30;11.05;;;;;;;5.13;93.09;102062.59;5120676;27;20027;-76
2020/12/02 07:05:23;;;;;;;29.73;14.30;;;;;;;5.12;93.17;102060.84;5124986;27;20492;-76
2020/12/02 07:07:48;;;;;;;26.27;14.40;;;;;;;5.10;93.24;102064.97;5121700;27;20361;-77
2020/12/02 07:10:16;;;;;;;27.60;15.00;;;;;;;5.13;93.44;102062.59;5118848;27;20076;-77
2020/12/02 07:12:41;;;;;;;28.30;14.50;;;;;;;5.13;93.34;102065.16;5131438;27;20126;-77
2020/12/02 07:15:06;;;;;;;22.80;13.93;;;;;;;5.13;92.87;102062.59;5121783;27;20047;-76
2020/12/02 07:17:31;;;;;;;26.80;15.63;;;;;;;5.13;92.70;102066.03;5130079;27;20030;-76
2020/12/02 07:20:06;;;;;;;26.63;16.07;;;;;;;5.11;93.01;102075.25;5133234;27;20026;-77
2020/12/02 07:22:34;;;;;;;27.33;15.50;;;;;;;5.08;92.95;102064.84;5114297;27;20024;-74
2020/12/02 07:25:05;;;;;;;28.83;15.67;;;;;;;5.09;93.00;102068.28;5130174;27;20011;-76
2020/12/02 07:27:30;;;;;;;28.83;15.20;;;;;;;5.11;93.04;102061.63;5127896;27;20106;-76
2020/12/02 07:30:00;;;;;;;28.40;14.13;;;;;;;5.13;92.87;102055.84;5120190;27;20142;-77
2020/12/02 07:32:26;;;;;;;26.67;14.63;;;;;;;5.13;92.88;102057.50;5122952;27;20773;-77
2020/12/02 07:35:12;;;;;;;30.60;16.00;;;;;;;5.13;92.98;102052.41;5124944;27;20058;-77
2020/12/02 07:37:38;;;;;;;24.80;14.93;;;;;;;5.14;92.75;102065.25;5131164;27;20066;-76
2020/12/02 07:40:30;;;;;;;31.50;16.23;;;;;;;5.15;92.60;102066.13;5122652;27;20043;-77
2020/12/02 07:42:56;;;;;;;30.00;16.13;;;;;;;5.14;92.70;102064.38;5124479;27;20031;-77
2020/12/02 07:45:32;;;;;;;;;;;;;;;5.16;92.42;102056.03;5130155;27;20088;-76
2020/12/02 07:48:14;;;;;;;27.07;15.20;;;;;;;5.18;92.47;102066.34;5116851;27;20030;-77
2020/12/02 07:50:44;;;;;;;29.23;15.97;;;;;;;5.14;92.55;102059.28;5124615;27;20117;-76
2020/12/02 07:53:35;;;;;;;30.97;15.47;;;;;;;5.12;92.88;102056.63;5113993;27;20020;-77
2020/12/02 07:56:04;;;;;;;28.90;15.87;;;;;;;5.13;92.55;102055.84;5110631;28;20055;-77
2020/12/02 07:58:42;;;;;;;27.33;14.70;;;;;;;5.16;92.96;102050.06;5128926;27;20023;-78
2020/12/02 08:01:35;;;;;;;27.00;15.27;;;;;;;5.17;92.55;102051.81;5120606;27;20496;-77
2020/12/02 08:04:22;;;;;;;32.17;16.60;;;;;;;5.15;92.46;102050.84;5130629;27;20027;-78
2020/12/02 08:06:58;;;;;;;31.05;17.70;;;;;;;5.15;92.58;102053.41;5119530;27;20488;-77
2020/12/02 08:09:23;;;;;;;34.47;17.08;;;;;;;5.13;92.42;102048.22;5123368;27;20480;-78
2020/12/02 08:11:58;;;;;;;32.93;17.67;;;;;;;5.14;92.32;102044.00;5115705;27;20031;-78
2020/12/02 08:14:30;;;;;;;32.87;18.50;;;;;;;5.11;92.31;102038.72;5120869;27;20031;-77
2020/12/02 08:17:04;;;;;;;35.87;18.30;;;;;;;5.06;92.43;102025.69;5126858;27;20072;-77
2020/12/02 08:19:36;;;;;;;36.53;18.27;;;;;;;5.13;92.12;102029.50;5124097;27;20027;-77
2020/12/02 08:22:02;;;;;;;40.00;18.20;;;;;;;5.07;92.32;102030.00;5122353;27;20420;-77
2020/12/02 08:24:44;;;;;;;35.88;18.45;;;;;;;5.12;92.52;102037.91;5123917;27;20027;-77
2020/12/02 08:27:12;;;;;;;35.90;17.90;;;;;;;5.20;92.00;102026.56;5126962;27;20035;-77
2020/12/02 08:29:38;;;;;;;36.50;18.87;;;;;;;5.13;91.94;102020.19;5127339;27;20396;-77
2020/12/02 08:32:16;;;;;;;37.97;18.55;;;;;;;5.13;92.34;102025.28;5123419;27;20111;-78
2020/12/02 08:34:41;;;;;;;36.10;18.43;;;;;;;5.12;92.18;102018.44;5121726;27;20030;-77
2020/12/02 08:37:10;;;;;;;37.53;20.00;;;;;;;5.07;92.21;102022.34;5117884;27;20013;-77
2020/12/02 08:39:36;;;;;;;36.53;18.73;;;;;;;5.13;92.04;102011.66;5118934;27;20407;-77
2020/12/02 08:42:01;;;;;;;39.00;19.35;;;;;;;5.11;92.42;102019.22;5127820;27;20035;-77
2020/12/02 08:44:26;;;;;;;36.45;19.02;;;;;;;5.05;92.43;102013.72;5122655;27;20411;-77
2020/12/02 08:47:09;;;;;;;42.05;19.60;;;;;;;5.03;92.58;102014.41;5121342;27;20057;-77
2020/12/02 08:49:35;;;;;;;42.30;20.90;;;;;;;5.04;92.93;102006.00;5122233;27;20496;-77
2020/12/02 08:52:01;;;;;;;41.70;20.07;;;;;;;5.08;92.81;102003.75;5120385;27;21683;-78
2020/12/02 08:54:27;;;;;;;39.17;19.55;;;;;;;5.16;92.28;102006.75;5121982;27;20035;-78
2020/12/02 08:57:04;;;;;;;43.05;20.40;;;;;;;5.12;92.25;102003.16;5125649;27;20031;-77
2020/12/02 08:59:30;;;;;;;44.23;20.13;;;;;;;5.07;92.76;102003.63;5116972;27;20027;-76
2020/12/02 09:02:14;;;;;;;48.13;21.58;;;;;;;5.08;92.61;101998.63;5126976;27;20409;-79
2020/12/02 09:04:40;;;;;;;40.97;20.63;;;;;;;5.14;92.85;101995.59;5123836;27;20023;-78
2020/12/02 09:07:05;;;;;;;38.97;18.65;;;;;;;5.18;92.96;101998.44;5124965;27;20472;-78
2020/12/02 09:09:31;;;;;;;33.30;18.42;;;;;;;5.26;93.13;101988.75;5122094;27;20038;-78
2020/12/02 09:11:56;;;;;;;37.50;18.55;;;;;;;5.26;92.93;101993.84;5120526;27;20051;-78
2020/12/02 09:14:21;;;;;;;46.10;23.92;;;;;;;5.28;92.42;101994.84;5120665;27;20024;-77
2020/12/02 09:16:47;;;;;;;37.03;18.00;;;;;;;5.29;92.37;101988.94;5122639;27;20076;-80
2020/12/02 09:19:16;;;;;;;36.33;18.50;;;;;;;5.30;92.20;101988.16;5118105;27;20019;-77
2020/12/02 09:21:42;;;;;;;34.30;17.93;;;;;;;5.36;92.00;101991.09;5114699;27;20763;-77
2020/12/02 09:24:07;;;;;;;29.75;16.98;;;;;;;5.40;91.86;101993.03;5120528;27;20035;-78
2020/12/02 09:26:34;;;;;;;40.33;23.27;;;;;;;5.42;91.89;101988.03;5118579;27;20160;-76
2020/12/02 09:29:01;;;;;;;33.67;17.17;;;;;;;5.40;91.63;101987.94;5120239;27;20296;-77
2020/12/02 09:31:27;;;;;;;33.70;17.80;;;;;;;5.45;91.72;101990.78;5126730;27;20039;-76
2020/12/02 09:33:53;;;;;;;33.73;17.33;;;;;;;5.42;91.30;101986.38;5118589;27;20425;-77
2020/12/02 09:36:19;;;;;;;32.10;17.30;;;;;;;5.50;91.52;101987.72;5115169;27;20107;-76
2020/12/02 09:38:47;;;;;;;33.17;17.53;;;;;;;5.53;91.45;101985.41;5120763;27;20507;-76
2020/12/02 09:41:27;;;;;;;29.90;16.17;;;;;;;5.54;91.31;101984.59;5126365;27;20027;-76
2020/12/02 09:44:21;;;;;;;36.10;18.20;;;;;;;5.53;91.02;101981.97;5119357;27;20110;-76
2020/12/02 09:46:52;;;;;;;34.87;18.57;;;;;;;5.46;91.09;101983.22;5122138;27;20035;-75
2020/12/02 09:49:18;;;;;;;37.87;22.43;;;;;;;5.39;91.39;101976.00;5116601;27;20024;-76
2020/12/02 09:51:52;;;;;;;32.85;17.83;;;;;;;5.45;91.00;101975.50;5112439;27;20039;-75
2020/12/02 09:54:17;;;;;;;34.60;17.53;;;;;;;5.40;91.07;101971.78;5122786;27;20035;-76
2020/12/02 09:56:44;;;;;;;33.65;17.33;;;;;;;5.41;91.07;101963.34;5118658;27;20031;-76
2020/12/02 09:59:10;;;;;;;34.20;16.73;;;;;;;5.45;91.46;101966.19;5117977;27;20064;-76
2020/12/02 10:01:54;;;;;;;35.55;17.23;;;;;;;5.52;91.35;101957.22;5123439;27;20168;-75
2020/12/02 10:04:44;;;;;;;35.93;18.30;;;;;;;5.57;91.47;101945.69;5121342;27;20061;-76
2020/12/02 10:07:22;;;;;;;32.63;17.30;;;;;;;5.58;91.01;101947.44;5110038;28;20156;-75
2020/12/02 10:10:23;;;;;;;35.73;18.87;;;;;;;5.46;91.07;101950.09;5115544;27;20398;-75
2020/12/02 10:13:03;;;;;;;35.70;18.70;;;;;;;5.53;91.24;101941.19;5050149;28;20822;-76
2020/12/02 10:15:45;;;;;;;31.60;17.43;;;;;;;5.46;91.33;101945.00;5106224;27;20169;-76
2020/12/02 10:18:41;;;;;;;37.67;18.17;;;;;;;5.46;90.79;101941.56;5111262;28;20035;-76
2020/12/02 10:21:33;;;;;;;40.60;19.13;;;;;;;5.40;90.62;101942.09;5115475;28;20503;-75
2020/12/02 10:24:05;;;;;;;42.33;19.03;;;;;;;5.34;91.05;101941.72;5117384;28;20047;-76
2020/12/02 10:26:54;;;;;;;47.27;20.97;;;;;;;5.38;91.50;101930.03;5121975;28;20043;-75
2020/12/02 10:29:33;;;;;;;42.87;20.07;;;;;;;5.34;91.37;101921.31;5121691;28;20027;-75
2020/12/02 10:32:38;;;;;;;40.93;20.33;;;;;;;5.35;91.78;101923.09;5121689;27;20098;-74
2020/12/02 10:35:05;;;;;;;44.13;21.37;;;;;;;5.32;91.56;101912.72;5123676;27;20491;-76
2020/12/02 10:37:36;;;;;;;47.03;21.73;;;;;;;5.37;91.82;101911.31;5123923;27;20488;-75
2020/12/02 10:40:03;;;;;;;40.33;20.03;;;;;;;5.43;91.43;101896.41;5126588;27;20156;-76
2020/12/02 10:42:44;;;;;;;39.93;20.73;;;;;;;5.55;91.11;101897.16;5127419;27;20492;-75
2020/12/02 10:45:16;;;;;;;40.33;20.50;;;;;;;5.49;90.70;101891.66;5127335;27;20350;-76
2020/12/02 10:47:59;;;;;;;49.00;21.53;;;;;;;5.38;91.43;101886.72;5129709;27;20027;-76
2020/12/02 10:50:29;;;;;;;50.20;22.97;;;;;;;5.30;91.87;101878.63;5122189;27;20062;-76
2020/12/02 10:52:56;;;;;;;43.93;20.20;;;;;;;5.35;92.07;101877.22;5122507;27;20500;-75
2020/12/02 10:55:25;;;;;;;50.90;21.77;;;;;;;5.39;91.49;101870.66;5115540;27;20019;-75
2020/12/02 10:57:59;;;;;;;47.67;21.33;;;;;;;5.38;91.92;101867.22;5126901;27;20031;-75
2020/12/02 11:00:26;;;;;;;39.17;19.70;;;;;;;5.38;90.40;101861.25;5123886;27;20041;-76
2020/12/02 11:03:11;;;;;;;;;;;;;;;5.46;91.23;101855.81;5121837;27;20027;-76
2020/12/02 11:05:37;;;;;;;45.97;21.43;;;;;;;5.63;90.87;101850.06;5132490;27;21266;-75
2020/12/02 11:08:35;;;;;;;48.67;20.90;;;;;;;5.59;91.19;101848.13;5123162;27;20023;-73
2020/12/02 11:11:09;;;;;;;42.27;21.27;;;;;;;5.53;90.47;101842.69;5128542;27;20038;-75
2020/12/02 11:13:45;;;;;;;40.77;19.73;;;;;;;5.41;91.37;101841.91;5131254;27;20446;-75
2020/12/02 11:16:25;;;;;;;42.70;19.80;;;;;;;5.45;91.23;101836.22;5129416;27;20031;-75
2020/12/02 11:19:03;;;;;;;45.40;21.27;;;;;;;5.46;91.92;101832.88;5132821;27;20027;-75
2020/12/02 11:21:44;;;;;;;45.40;21.73;;;;;;;5.46;91.96;101835.44;5128306;27;20031;-75
2020/12/02 11:24:38;;;;;;;43.27;20.53;;;;;;;5.42;91.28;101825.84;5130991;27;20023;-76
2020/12/02 11:27:03;;;;;;;49.77;23.50;;;;;;;5.39;91.68;101815.47;5113480;28;20024;-76
2020/12/02 11:29:29;;;;;;;50.90;23.33;;;;;;;5.37;91.97;101814.50;5112177;28;20488;-76
2020/12/02 11:31:57;;;;;;;51.08;23.92;;;;;;;5.31;92.00;101809.03;5128680;27;20073;-76
2020/12/02 11:34:58;;;;;;;53.87;24.47;;;;;;;5.35;92.30;101805.88;5124772;27;20176;-75
2020/12/02 11:37:33;;;;;;;47.10;23.50;;;;;;;5.34;91.84;101803.25;5096984;27;20506;-76
2020/12/02 11:40:03;;;;;;;46.00;22.33;;;;;;;5.47;91.59;101801.50;5125536;27;20038;-76